sensor_id;sensor_type;location;lat;lon;timestamp;P1;durP1;ratioP1;P2;durP2;ratioP2
7233;SDS011;3658;47.992;10.158;2022-08-19T00:01:50;1.83;;;1.73;;
7233;SDS011;3658;47.992;10.158;2022-08-19T00:04:20;2.00;;;1.80;;
7233;SDS011;3658;47.992;10.158;2022-08-19T00:06:50;2.50;;;1.70;;
7233;SDS011;3658;47.992;10.158;2022-08-19T00:09:19;1.70;;;1.60;;
7233;SDS011;3658;47.992;10.158;2022-08-19T00:11:49;1.90;;;1.70;;
7233;SDS011;3658;47.992;10.158;2022-08-19T00:14:17;1.87;;;1.70;;
7233;SDS011;3658;47.992;10.158;2022-08-19T00:16:46;2.27;;;1.90;;
7233;SDS011;3658;47.992;10.158;2022-08-19T00:19:13;1.87;;;1.77;;
7233;SDS011;3658;47.992;10.158;2022-08-19T00:21:41;1.70;;;1.60;;
7233;SDS011;3658;47.992;10.158;2022-08-19T00:24:09;1.80;;;1.70;;
7233;SDS011;3658;47.992;10.158;2022-08-19T00:26:39;1.60;;;1.50;;
7233;SDS011;3658;47.992;10.158;2022-08-19T00:29:07;2.13;;;1.73;;
7233;SDS011;3658;47.992;10.158;2022-08-19T00:31:36;2.30;;;1.80;;
7233;SDS011;3658;47.992;10.158;2022-08-19T00:34:03;1.73;;;1.63;;
7233;SDS011;3658;47.992;10.158;2022-08-19T00:36:30;2.10;;;1.90;;
7233;SDS011;3658;47.992;10.158;2022-08-19T00:38:58;2.00;;;1.80;;
7233;SDS011;3658;47.992;10.158;2022-08-19T00:41:25;1.77;;;1.67;;
7233;SDS011;3658;47.992;10.158;2022-08-19T00:44:03;1.70;;;1.60;;
7233;SDS011;3658;47.992;10.158;2022-08-19T00:46:32;1.60;;;1.50;;
7233;SDS011;3658;47.992;10.158;2022-08-19T00:49:03;1.60;;;1.50;;
7233;SDS011;3658;47.992;10.158;2022-08-19T00:51:35;1.60;;;1.50;;
7233;SDS011;3658;47.992;10.158;2022-08-19T00:54:02;1.70;;;1.60;;
7233;SDS011;3658;47.992;10.158;2022-08-19T00:56:30;3.07;;;1.60;;
7233;SDS011;3658;47.992;10.158;2022-08-19T00:58:59;1.70;;;1.60;;
7233;SDS011;3658;47.992;10.158;2022-08-19T01:01:28;1.40;;;1.30;;
7233;SDS011;3658;47.992;10.158;2022-08-19T01:03:55;1.73;;;1.63;;
7233;SDS011;3658;47.992;10.158;2022-08-19T01:06:22;1.80;;;1.70;;
7233;SDS011;3658;47.992;10.158;2022-08-19T01:08:49;1.67;;;1.57;;
7233;SDS011;3658;47.992;10.158;2022-08-19T01:11:16;1.60;;;1.50;;
7233;SDS011;3658;47.992;10.158;2022-08-19T01:13:43;1.60;;;1.50;;
7233;SDS011;3658;47.992;10.158;2022-08-19T01:16:13;1.80;;;1.70;;
7233;SDS011;3658;47.992;10.158;2022-08-19T01:18:41;2.10;;;1.60;;
7233;SDS011;3658;47.992;10.158;2022-08-19T01:21:10;1.50;;;1.37;;
7233;SDS011;3658;47.992;10.158;2022-08-19T01:23:45;1.43;;;1.33;;
7233;SDS011;3658;47.992;10.158;2022-08-19T01:26:14;1.67;;;1.57;;
7233;SDS011;3658;47.992;10.158;2022-08-19T01:28:43;1.60;;;1.50;;
7233;SDS011;3658;47.992;10.158;2022-08-19T01:31:13;1.40;;;1.30;;
7233;SDS011;3658;47.992;10.158;2022-08-19T01:33:42;1.50;;;1.40;;
7233;SDS011;3658;47.992;10.158;2022-08-19T01:36:10;1.50;;;1.40;;
7233;SDS011;3658;47.992;10.158;2022-08-19T01:38:40;1.70;;;1.60;;
7233;SDS011;3658;47.992;10.158;2022-08-19T01:41:10;1.57;;;1.47;;
7233;SDS011;3658;47.992;10.158;2022-08-19T01:43:37;1.40;;;1.30;;
7233;SDS011;3658;47.992;10.158;2022-08-19T01:46:04;1.77;;;1.67;;
7233;SDS011;3658;47.992;10.158;2022-08-19T01:48:32;1.50;;;1.40;;
7233;SDS011;3658;47.992;10.158;2022-08-19T01:51:01;1.43;;;1.33;;
7233;SDS011;3658;47.992;10.158;2022-08-19T01:53:28;1.50;;;1.40;;
7233;SDS011;3658;47.992;10.158;2022-08-19T01:55:55;1.50;;;1.40;;
7233;SDS011;3658;47.992;10.158;2022-08-19T01:58:26;1.60;;;1.50;;
7233;SDS011;3658;47.992;10.158;2022-08-19T02:01:03;1.47;;;1.37;;
7233;SDS011;3658;47.992;10.158;2022-08-19T02:03:31;1.30;;;1.20;;
7233;SDS011;3658;47.992;10.158;2022-08-19T02:06:00;1.40;;;1.30;;
7233;SDS011;3658;47.992;10.158;2022-08-19T02:08:27;1.63;;;1.50;;
7233;SDS011;3658;47.992;10.158;2022-08-19T02:10:56;1.40;;;1.30;;
7233;SDS011;3658;47.992;10.158;2022-08-19T02:13:25;1.50;;;1.40;;
7233;SDS011;3658;47.992;10.158;2022-08-19T02:15:52;1.40;;;1.30;;
7233;SDS011;3658;47.992;10.158;2022-08-19T02:18:19;1.60;;;1.50;;
7233;SDS011;3658;47.992;10.158;2022-08-19T02:20:47;1.40;;;1.30;;
7233;SDS011;3658;47.992;10.158;2022-08-19T02:23:14;1.30;;;1.20;;
7233;SDS011;3658;47.992;10.158;2022-08-19T02:25:43;1.53;;;1.43;;
7233;SDS011;3658;47.992;10.158;2022-08-19T02:28:12;1.47;;;1.37;;
7233;SDS011;3658;47.992;10.158;2022-08-19T02:30:41;1.40;;;1.30;;
7233;SDS011;3658;47.992;10.158;2022-08-19T02:33:08;1.40;;;1.30;;
7233;SDS011;3658;47.992;10.158;2022-08-19T02:35:35;1.40;;;1.30;;
7233;SDS011;3658;47.992;10.158;2022-08-19T02:38:02;1.33;;;1.23;;
7233;SDS011;3658;47.992;10.158;2022-08-19T02:40:50;1.50;;;1.40;;
7233;SDS011;3658;47.992;10.158;2022-08-19T02:43:19;1.60;;;1.50;;
7233;SDS011;3658;47.992;10.158;2022-08-19T02:45:48;1.33;;;1.23;;
7233;SDS011;3658;47.992;10.158;2022-08-19T02:48:16;1.50;;;1.40;;
7233;SDS011;3658;47.992;10.158;2022-08-19T02:50:43;2.03;;;1.37;;
7233;SDS011;3658;47.992;10.158;2022-08-19T02:53:11;1.50;;;1.40;;
7233;SDS011;3658;47.992;10.158;2022-08-19T02:55:42;1.67;;;1.57;;
7233;SDS011;3658;47.992;10.158;2022-08-19T02:58:10;1.33;;;1.23;;
7233;SDS011;3658;47.992;10.158;2022-08-19T03:00:40;1.30;;;1.20;;
7233;SDS011;3658;47.992;10.158;2022-08-19T03:03:11;1.77;;;1.33;;
7233;SDS011;3658;47.992;10.158;2022-08-19T03:05:38;1.40;;;1.30;;
7233;SDS011;3658;47.992;10.158;2022-08-19T03:08:05;1.43;;;1.33;;
7233;SDS011;3658;47.992;10.158;2022-08-19T03:10:39;1.40;;;1.30;;
7233;SDS011;3658;47.992;10.158;2022-08-19T03:13:09;1.30;;;1.20;;
7233;SDS011;3658;47.992;10.158;2022-08-19T03:15:38;1.30;;;1.20;;
7233;SDS011;3658;47.992;10.158;2022-08-19T03:18:07;1.40;;;1.30;;
7233;SDS011;3658;47.992;10.158;2022-08-19T03:20:35;1.30;;;1.20;;
7233;SDS011;3658;47.992;10.158;2022-08-19T03:23:06;1.40;;;1.30;;
7233;SDS011;3658;47.992;10.158;2022-08-19T03:25:36;1.30;;;1.20;;
7233;SDS011;3658;47.992;10.158;2022-08-19T03:28:04;1.30;;;1.20;;
7233;SDS011;3658;47.992;10.158;2022-08-19T03:30:31;1.30;;;1.20;;
7233;SDS011;3658;47.992;10.158;2022-08-19T03:32:58;1.27;;;1.17;;
7233;SDS011;3658;47.992;10.158;2022-08-19T03:35:25;1.23;;;1.13;;
7233;SDS011;3658;47.992;10.158;2022-08-19T03:37:53;1.30;;;1.20;;
7233;SDS011;3658;47.992;10.158;2022-08-19T03:40:21;1.57;;;1.47;;
7233;SDS011;3658;47.992;10.158;2022-08-19T03:42:48;1.30;;;1.20;;
7233;SDS011;3658;47.992;10.158;2022-08-19T03:45:15;1.43;;;1.33;;
7233;SDS011;3658;47.992;10.158;2022-08-19T03:47:42;1.20;;;1.10;;
7233;SDS011;3658;47.992;10.158;2022-08-19T03:50:10;1.30;;;1.20;;
7233;SDS011;3658;47.992;10.158;2022-08-19T03:52:37;1.30;;;1.20;;
7233;SDS011;3658;47.992;10.158;2022-08-19T03:55:06;1.00;;;1.00;;
7233;SDS011;3658;47.992;10.158;2022-08-19T03:57:33;1.40;;;1.30;;
7233;SDS011;3658;47.992;10.158;2022-08-19T04:00:00;1.40;;;1.30;;
7233;SDS011;3658;47.992;10.158;2022-08-19T04:02:29;1.30;;;1.20;;
7233;SDS011;3658;47.992;10.158;2022-08-19T04:04:56;1.30;;;1.20;;
7233;SDS011;3658;47.992;10.158;2022-08-19T04:07:23;1.30;;;1.20;;
7233;SDS011;3658;47.992;10.158;2022-08-19T04:09:50;1.13;;;1.10;;
7233;SDS011;3658;47.992;10.158;2022-08-19T04:12:19;1.40;;;1.30;;
7233;SDS011;3658;47.992;10.158;2022-08-19T04:14:46;1.33;;;1.23;;
7233;SDS011;3658;47.992;10.158;2022-08-19T04:17:13;1.37;;;1.27;;
7233;SDS011;3658;47.992;10.158;2022-08-19T04:19:40;1.30;;;1.20;;
7233;SDS011;3658;47.992;10.158;2022-08-19T04:22:07;1.00;;;1.00;;
7233;SDS011;3658;47.992;10.158;2022-08-19T04:24:35;1.30;;;1.20;;
7233;SDS011;3658;47.992;10.158;2022-08-19T04:27:03;1.30;;;1.20;;
7233;SDS011;3658;47.992;10.158;2022-08-19T04:29:32;1.23;;;1.13;;
7233;SDS011;3658;47.992;10.158;2022-08-19T04:31:59;1.33;;;1.23;;
7233;SDS011;3658;47.992;10.158;2022-08-19T04:34:27;1.30;;;1.20;;
7233;SDS011;3658;47.992;10.158;2022-08-19T04:36:56;1.27;;;1.17;;
7233;SDS011;3658;47.992;10.158;2022-08-19T04:39:25;1.47;;;1.37;;
7233;SDS011;3658;47.992;10.158;2022-08-19T04:42:08;1.40;;;1.30;;
7233;SDS011;3658;47.992;10.158;2022-08-19T04:44:54;1.40;;;1.30;;
7233;SDS011;3658;47.992;10.158;2022-08-19T04:47:22;1.50;;;1.40;;
7233;SDS011;3658;47.992;10.158;2022-08-19T04:49:48;1.50;;;1.40;;
7233;SDS011;3658;47.992;10.158;2022-08-19T04:52:16;1.40;;;1.30;;
7233;SDS011;3658;47.992;10.158;2022-08-19T04:54:42;1.30;;;1.20;;
7233;SDS011;3658;47.992;10.158;2022-08-19T04:57:09;1.17;;;1.10;;
7233;SDS011;3658;47.992;10.158;2022-08-19T04:59:37;1.60;;;1.20;;
7233;SDS011;3658;47.992;10.158;2022-08-19T05:02:08;1.30;;;1.20;;
7233;SDS011;3658;47.992;10.158;2022-08-19T05:04:35;3.93;;;3.53;;
7233;SDS011;3658;47.992;10.158;2022-08-19T05:07:04;6.37;;;5.40;;
7233;SDS011;3658;47.992;10.158;2022-08-19T05:09:32;6.70;;;6.07;;
7233;SDS011;3658;47.992;10.158;2022-08-19T05:11:59;8.60;;;7.70;;
7233;SDS011;3658;47.992;10.158;2022-08-19T05:14:27;9.77;;;8.77;;
7233;SDS011;3658;47.992;10.158;2022-08-19T05:16:54;10.20;;;9.13;;
7233;SDS011;3658;47.992;10.158;2022-08-19T05:19:22;10.80;;;9.70;;
7233;SDS011;3658;47.992;10.158;2022-08-19T05:22:07;10.57;;;9.20;;
7233;SDS011;3658;47.992;10.158;2022-08-19T05:24:51;9.93;;;8.93;;
7233;SDS011;3658;47.992;10.158;2022-08-19T05:27:19;11.63;;;9.97;;
7233;SDS011;3658;47.992;10.158;2022-08-19T05:29:46;10.30;;;8.97;;
7233;SDS011;3658;47.992;10.158;2022-08-19T05:32:13;11.50;;;9.40;;
7233;SDS011;3658;47.992;10.158;2022-08-19T05:34:42;9.83;;;8.87;;
7233;SDS011;3658;47.992;10.158;2022-08-19T05:37:10;10.80;;;9.37;;
7233;SDS011;3658;47.992;10.158;2022-08-19T05:39:37;11.43;;;10.10;;
7233;SDS011;3658;47.992;10.158;2022-08-19T05:42:06;10.93;;;9.83;;
7233;SDS011;3658;47.992;10.158;2022-08-19T05:44:36;11.10;;;9.63;;
7233;SDS011;3658;47.992;10.158;2022-08-19T05:47:04;11.00;;;9.80;;
7233;SDS011;3658;47.992;10.158;2022-08-19T05:49:34;10.53;;;9.50;;
7233;SDS011;3658;47.992;10.158;2022-08-19T05:52:04;10.53;;;9.47;;
7233;SDS011;3658;47.992;10.158;2022-08-19T05:54:33;10.30;;;9.00;;
7233;SDS011;3658;47.992;10.158;2022-08-19T05:57:01;10.60;;;9.50;;
7233;SDS011;3658;47.992;10.158;2022-08-19T05:59:28;9.97;;;8.97;;
7233;SDS011;3658;47.992;10.158;2022-08-19T06:01:56;10.43;;;9.20;;
7233;SDS011;3658;47.992;10.158;2022-08-19T06:04:25;9.90;;;8.90;;
7233;SDS011;3658;47.992;10.158;2022-08-19T06:06:52;9.90;;;8.90;;
7233;SDS011;3658;47.992;10.158;2022-08-19T06:09:22;9.53;;;8.63;;
7233;SDS011;3658;47.992;10.158;2022-08-19T06:11:50;9.33;;;8.33;;
7233;SDS011;3658;47.992;10.158;2022-08-19T06:14:20;10.03;;;9.03;;
7233;SDS011;3658;47.992;10.158;2022-08-19T06:16:50;10.43;;;9.30;;
7233;SDS011;3658;47.992;10.158;2022-08-19T06:19:18;8.93;;;8.03;;
7233;SDS011;3658;47.992;10.158;2022-08-19T06:21:47;9.67;;;8.77;;
7233;SDS011;3658;47.992;10.158;2022-08-19T06:24:16;9.03;;;8.10;;
7233;SDS011;3658;47.992;10.158;2022-08-19T06:26:47;10.00;;;9.00;;
7233;SDS011;3658;47.992;10.158;2022-08-19T06:29:15;9.50;;;8.60;;
7233;SDS011;3658;47.992;10.158;2022-08-19T06:31:45;9.60;;;8.60;;
7233;SDS011;3658;47.992;10.158;2022-08-19T06:34:15;9.00;;;8.10;;
7233;SDS011;3658;47.992;10.158;2022-08-19T06:36:44;9.37;;;8.40;;
7233;SDS011;3658;47.992;10.158;2022-08-19T06:39:13;9.80;;;8.80;;
7233;SDS011;3658;47.992;10.158;2022-08-19T06:41:42;9.03;;;8.13;;
7233;SDS011;3658;47.992;10.158;2022-08-19T06:44:12;8.90;;;8.00;;
7233;SDS011;3658;47.992;10.158;2022-08-19T06:46:40;9.17;;;8.20;;
7233;SDS011;3658;47.992;10.158;2022-08-19T06:49:08;9.33;;;8.43;;
7233;SDS011;3658;47.992;10.158;2022-08-19T06:51:38;9.20;;;8.30;;
7233;SDS011;3658;47.992;10.158;2022-08-19T06:54:06;8.90;;;8.07;;
7233;SDS011;3658;47.992;10.158;2022-08-19T06:56:34;8.43;;;7.63;;
7233;SDS011;3658;47.992;10.158;2022-08-19T06:59:02;8.93;;;8.03;;
7233;SDS011;3658;47.992;10.158;2022-08-19T07:01:34;10.13;;;7.20;;
7233;SDS011;3658;47.992;10.158;2022-08-19T07:04:02;9.47;;;7.57;;
7233;SDS011;3658;47.992;10.158;2022-08-19T07:06:30;9.47;;;7.70;;
7233;SDS011;3658;47.992;10.158;2022-08-19T07:08:58;8.37;;;7.47;;
7233;SDS011;3658;47.992;10.158;2022-08-19T07:11:25;12.17;;;6.80;;
7233;SDS011;3658;47.992;10.158;2022-08-19T07:13:53;9.47;;;6.67;;
7233;SDS011;3658;47.992;10.158;2022-08-19T07:16:20;6.93;;;6.23;;
7233;SDS011;3658;47.992;10.158;2022-08-19T07:18:49;6.90;;;6.20;;
7233;SDS011;3658;47.992;10.158;2022-08-19T07:21:18;6.43;;;5.83;;
7233;SDS011;3658;47.992;10.158;2022-08-19T07:23:49;6.20;;;5.60;;
7233;SDS011;3658;47.992;10.158;2022-08-19T07:26:18;6.13;;;5.63;;
7233;SDS011;3658;47.992;10.158;2022-08-19T07:28:47;7.20;;;5.80;;
7233;SDS011;3658;47.992;10.158;2022-08-19T07:31:16;5.93;;;5.33;;
7233;SDS011;3658;47.992;10.158;2022-08-19T07:33:45;6.60;;;5.33;;
7233;SDS011;3658;47.992;10.158;2022-08-19T07:36:15;7.63;;;5.30;;
7233;SDS011;3658;47.992;10.158;2022-08-19T07:38:45;6.07;;;5.47;;
7233;SDS011;3658;47.992;10.158;2022-08-19T07:41:15;5.23;;;4.73;;
7233;SDS011;3658;47.992;10.158;2022-08-19T07:43:44;6.10;;;5.60;;
7233;SDS011;3658;47.992;10.158;2022-08-19T07:46:12;5.80;;;5.30;;
7233;SDS011;3658;47.992;10.158;2022-08-19T07:48:40;5.80;;;5.30;;
7233;SDS011;3658;47.992;10.158;2022-08-19T07:51:13;5.00;;;4.57;;
7233;SDS011;3658;47.992;10.158;2022-08-19T07:53:43;5.53;;;5.03;;
7233;SDS011;3658;47.992;10.158;2022-08-19T07:56:11;5.73;;;5.23;;
7233;SDS011;3658;47.992;10.158;2022-08-19T07:58:39;6.83;;;5.80;;
7233;SDS011;3658;47.992;10.158;2022-08-19T08:01:09;7.33;;;6.63;;
7233;SDS011;3658;47.992;10.158;2022-08-19T08:03:37;7.50;;;6.77;;
7233;SDS011;3658;47.992;10.158;2022-08-19T08:06:23;6.87;;;6.23;;
7233;SDS011;3658;47.992;10.158;2022-08-19T08:09:08;7.40;;;6.70;;
7233;SDS011;3658;47.992;10.158;2022-08-19T08:11:43;7.73;;;6.93;;
7233;SDS011;3658;47.992;10.158;2022-08-19T08:14:15;8.90;;;7.83;;
7233;SDS011;3658;47.992;10.158;2022-08-19T08:16:44;8.47;;;7.57;;
7233;SDS011;3658;47.992;10.158;2022-08-19T08:19:12;9.17;;;7.97;;
7233;SDS011;3658;47.992;10.158;2022-08-19T08:21:42;9.17;;;8.17;;
7233;SDS011;3658;47.992;10.158;2022-08-19T08:24:10;9.83;;;8.83;;
7233;SDS011;3658;47.992;10.158;2022-08-19T08:26:38;10.97;;;9.23;;
7233;SDS011;3658;47.992;10.158;2022-08-19T08:29:06;8.70;;;7.80;;
7233;SDS011;3658;47.992;10.158;2022-08-19T08:31:36;9.73;;;8.77;;
7233;SDS011;3658;47.992;10.158;2022-08-19T08:34:03;10.80;;;9.20;;
7233;SDS011;3658;47.992;10.158;2022-08-19T08:36:30;10.20;;;9.20;;
7233;SDS011;3658;47.992;10.158;2022-08-19T08:39:00;9.90;;;8.87;;
7233;SDS011;3658;47.992;10.158;2022-08-19T08:41:28;13.50;;;8.87;;
7233;SDS011;3658;47.992;10.158;2022-08-19T08:44:02;8.87;;;7.97;;
7233;SDS011;3658;47.992;10.158;2022-08-19T08:46:32;8.77;;;7.20;;
7233;SDS011;3658;47.992;10.158;2022-08-19T08:49:09;8.87;;;7.10;;
7233;SDS011;3658;47.992;10.158;2022-08-19T08:51:44;8.50;;;7.50;;
7233;SDS011;3658;47.992;10.158;2022-08-19T08:54:20;7.57;;;6.40;;
7233;SDS011;3658;47.992;10.158;2022-08-19T08:56:57;7.77;;;6.97;;
7233;SDS011;3658;47.992;10.158;2022-08-19T08:59:24;7.33;;;6.50;;
7233;SDS011;3658;47.992;10.158;2022-08-19T09:01:57;9.73;;;8.03;;
7233;SDS011;3658;47.992;10.158;2022-08-19T09:04:24;9.97;;;8.17;;
7233;SDS011;3658;47.992;10.158;2022-08-19T09:06:53;8.77;;;7.90;;
7233;SDS011;3658;47.992;10.158;2022-08-19T09:09:35;7.97;;;6.53;;
7233;SDS011;3658;47.992;10.158;2022-08-19T09:12:09;11.97;;;8.87;;
7233;SDS011;3658;47.992;10.158;2022-08-19T09:14:44;12.73;;;9.23;;
7233;SDS011;3658;47.992;10.158;2022-08-19T09:17:14;9.90;;;8.90;;
7233;SDS011;3658;47.992;10.158;2022-08-19T09:19:52;10.37;;;8.40;;
7233;SDS011;3658;47.992;10.158;2022-08-19T09:22:20;11.27;;;8.83;;
7233;SDS011;3658;47.992;10.158;2022-08-19T09:24:50;10.33;;;8.00;;
7233;SDS011;3658;47.992;10.158;2022-08-19T09:27:18;10.60;;;9.03;;
7233;SDS011;3658;47.992;10.158;2022-08-19T09:29:46;11.07;;;9.93;;
7233;SDS011;3658;47.992;10.158;2022-08-19T09:32:13;13.03;;;10.97;;
7233;SDS011;3658;47.992;10.158;2022-08-19T09:34:40;13.60;;;11.77;;
7233;SDS011;3658;47.992;10.158;2022-08-19T09:37:08;13.43;;;11.73;;
7233;SDS011;3658;47.992;10.158;2022-08-19T09:39:35;14.57;;;12.50;;
7233;SDS011;3658;47.992;10.158;2022-08-19T09:42:04;13.43;;;12.03;;
7233;SDS011;3658;47.992;10.158;2022-08-19T09:44:36;14.40;;;11.60;;
7233;SDS011;3658;47.992;10.158;2022-08-19T09:47:03;14.33;;;12.77;;
7233;SDS011;3658;47.992;10.158;2022-08-19T09:49:30;15.13;;;12.93;;
7233;SDS011;3658;47.992;10.158;2022-08-19T09:51:57;14.70;;;12.07;;
7233;SDS011;3658;47.992;10.158;2022-08-19T09:54:26;14.77;;;13.03;;
7233;SDS011;3658;47.992;10.158;2022-08-19T09:56:54;17.40;;;13.93;;
7233;SDS011;3658;47.992;10.158;2022-08-19T09:59:23;16.23;;;13.50;;
7233;SDS011;3658;47.992;10.158;2022-08-19T10:01:50;18.23;;;14.07;;
7233;SDS011;3658;47.992;10.158;2022-08-19T10:04:17;15.30;;;13.50;;
7233;SDS011;3658;47.992;10.158;2022-08-19T10:06:44;17.90;;;14.60;;
7233;SDS011;3658;47.992;10.158;2022-08-19T10:09:13;17.93;;;15.50;;
7233;SDS011;3658;47.992;10.158;2022-08-19T10:11:42;17.63;;;15.47;;
7233;SDS011;3658;47.992;10.158;2022-08-19T10:14:14;19.97;;;15.30;;
7233;SDS011;3658;47.992;10.158;2022-08-19T10:16:43;19.63;;;16.03;;
7233;SDS011;3658;47.992;10.158;2022-08-19T10:19:10;22.07;;;17.67;;
7233;SDS011;3658;47.992;10.158;2022-08-19T10:21:37;22.63;;;17.30;;
7233;SDS011;3658;47.992;10.158;2022-08-19T10:24:05;19.67;;;17.20;;
7233;SDS011;3658;47.992;10.158;2022-08-19T10:26:33;24.40;;;17.30;;
7233;SDS011;3658;47.992;10.158;2022-08-19T10:29:03;17.97;;;15.33;;
7233;SDS011;3658;47.992;10.158;2022-08-19T10:31:31;18.60;;;15.70;;
7233;SDS011;3658;47.992;10.158;2022-08-19T10:34:01;17.43;;;13.90;;
7233;SDS011;3658;47.992;10.158;2022-08-19T10:36:29;15.03;;;13.10;;
7233;SDS011;3658;47.992;10.158;2022-08-19T10:38:59;12.77;;;11.37;;
7233;SDS011;3658;47.992;10.158;2022-08-19T10:41:28;13.93;;;11.97;;
7233;SDS011;3658;47.992;10.158;2022-08-19T10:43:56;13.40;;;11.97;;
7233;SDS011;3658;47.992;10.158;2022-08-19T10:46:26;14.70;;;12.63;;
7233;SDS011;3658;47.992;10.158;2022-08-19T10:48:54;13.03;;;11.63;;
7233;SDS011;3658;47.992;10.158;2022-08-19T10:51:22;14.03;;;11.20;;
7233;SDS011;3658;47.992;10.158;2022-08-19T10:54:12;15.23;;;12.60;;
7233;SDS011;3658;47.992;10.158;2022-08-19T10:56:39;12.33;;;11.10;;
7233;SDS011;3658;47.992;10.158;2022-08-19T10:59:18;13.77;;;11.07;;
7233;SDS011;3658;47.992;10.158;2022-08-19T11:01:47;13.00;;;11.60;;
7233;SDS011;3658;47.992;10.158;2022-08-19T11:04:16;13.90;;;12.40;;
7233;SDS011;3658;47.992;10.158;2022-08-19T11:06:45;12.93;;;11.23;;
7233;SDS011;3658;47.992;10.158;2022-08-19T11:09:13;12.17;;;10.97;;
7233;SDS011;3658;47.992;10.158;2022-08-19T11:11:41;12.60;;;10.47;;
7233;SDS011;3658;47.992;10.158;2022-08-19T11:14:09;11.30;;;9.47;;
7233;SDS011;3658;47.992;10.158;2022-08-19T11:16:38;11.50;;;10.30;;
7233;SDS011;3658;47.992;10.158;2022-08-19T11:19:07;10.43;;;9.33;;
7233;SDS011;3658;47.992;10.158;2022-08-19T11:21:36;10.60;;;9.40;;
7233;SDS011;3658;47.992;10.158;2022-08-19T11:24:07;10.20;;;9.20;;
7233;SDS011;3658;47.992;10.158;2022-08-19T11:26:36;11.50;;;9.23;;
7233;SDS011;3658;47.992;10.158;2022-08-19T11:29:04;8.97;;;8.07;;
7233;SDS011;3658;47.992;10.158;2022-08-19T11:31:36;10.53;;;9.10;;
7233;SDS011;3658;47.992;10.158;2022-08-19T11:34:05;10.67;;;9.67;;
7233;SDS011;3658;47.992;10.158;2022-08-19T11:36:36;10.50;;;9.17;;
7233;SDS011;3658;47.992;10.158;2022-08-19T11:39:05;10.63;;;9.40;;
7233;SDS011;3658;47.992;10.158;2022-08-19T11:41:34;9.27;;;7.87;;
7233;SDS011;3658;47.992;10.158;2022-08-19T11:44:02;9.77;;;8.77;;
7233;SDS011;3658;47.992;10.158;2022-08-19T11:46:30;8.43;;;7.53;;
7233;SDS011;3658;47.992;10.158;2022-08-19T11:48:57;9.90;;;8.90;;
7233;SDS011;3658;47.992;10.158;2022-08-19T11:51:26;9.17;;;8.10;;
7233;SDS011;3658;47.992;10.158;2022-08-19T11:53:55;9.53;;;7.70;;
7233;SDS011;3658;47.992;10.158;2022-08-19T11:56:25;9.53;;;7.83;;
7233;SDS011;3658;47.992;10.158;2022-08-19T11:58:54;9.60;;;7.53;;
7233;SDS011;3658;47.992;10.158;2022-08-19T12:01:22;7.87;;;7.10;;
7233;SDS011;3658;47.992;10.158;2022-08-19T12:03:52;7.83;;;6.90;;
7233;SDS011;3658;47.992;10.158;2022-08-19T12:06:21;7.97;;;6.90;;
7233;SDS011;3658;47.992;10.158;2022-08-19T12:08:53;8.13;;;6.80;;
7233;SDS011;3658;47.992;10.158;2022-08-19T12:11:21;7.83;;;6.33;;
7233;SDS011;3658;47.992;10.158;2022-08-19T12:13:50;6.60;;;5.90;;
7233;SDS011;3658;47.992;10.158;2022-08-19T12:16:19;5.47;;;4.97;;
7233;SDS011;3658;47.992;10.158;2022-08-19T12:18:47;5.87;;;5.27;;
7233;SDS011;3658;47.992;10.158;2022-08-19T12:21:16;5.90;;;5.30;;
7233;SDS011;3658;47.992;10.158;2022-08-19T12:23:46;5.93;;;4.70;;
7233;SDS011;3658;47.992;10.158;2022-08-19T12:26:14;5.70;;;5.10;;
7233;SDS011;3658;47.992;10.158;2022-08-19T12:28:42;5.37;;;4.63;;
7233;SDS011;3658;47.992;10.158;2022-08-19T12:31:10;5.37;;;4.87;;
7233;SDS011;3658;47.992;10.158;2022-08-19T12:33:38;4.77;;;4.37;;
7233;SDS011;3658;47.992;10.158;2022-08-19T12:36:07;5.13;;;4.63;;
7233;SDS011;3658;47.992;10.158;2022-08-19T12:38:35;5.60;;;4.27;;
7233;SDS011;3658;47.992;10.158;2022-08-19T12:41:03;5.47;;;4.83;;
7233;SDS011;3658;47.992;10.158;2022-08-19T12:43:31;4.50;;;4.10;;
7233;SDS011;3658;47.992;10.158;2022-08-19T12:45:58;4.63;;;4.20;;
7233;SDS011;3658;47.992;10.158;2022-08-19T12:48:26;4.00;;;3.70;;
7233;SDS011;3658;47.992;10.158;2022-08-19T12:50:54;4.37;;;3.97;;
7233;SDS011;3658;47.992;10.158;2022-08-19T12:53:21;5.67;;;4.33;;
7233;SDS011;3658;47.992;10.158;2022-08-19T12:55:54;4.73;;;4.30;;
7233;SDS011;3658;47.992;10.158;2022-08-19T12:58:22;4.50;;;4.10;;
7233;SDS011;3658;47.992;10.158;2022-08-19T13:00:49;4.77;;;4.37;;
7233;SDS011;3658;47.992;10.158;2022-08-19T13:03:16;4.13;;;3.77;;
7233;SDS011;3658;47.992;10.158;2022-08-19T13:05:45;5.40;;;3.77;;
7233;SDS011;3658;47.992;10.158;2022-08-19T13:08:12;4.30;;;3.90;;
7233;SDS011;3658;47.992;10.158;2022-08-19T13:10:39;4.03;;;3.70;;
7233;SDS011;3658;47.992;10.158;2022-08-19T13:13:07;4.40;;;4.00;;
7233;SDS011;3658;47.992;10.158;2022-08-19T13:15:36;4.10;;;3.70;;
7233;SDS011;3658;47.992;10.158;2022-08-19T13:18:06;4.67;;;4.27;;
7233;SDS011;3658;47.992;10.158;2022-08-19T13:20:35;4.40;;;4.00;;
7233;SDS011;3658;47.992;10.158;2022-08-19T13:23:05;4.83;;;4.13;;
7233;SDS011;3658;47.992;10.158;2022-08-19T13:25:33;4.43;;;3.97;;
7233;SDS011;3658;47.992;10.158;2022-08-19T13:28:01;4.40;;;4.00;;
7233;SDS011;3658;47.992;10.158;2022-08-19T13:30:29;4.23;;;3.83;;
7233;SDS011;3658;47.992;10.158;2022-08-19T13:33:14;3.93;;;3.63;;
7233;SDS011;3658;47.992;10.158;2022-08-19T13:35:43;4.10;;;3.80;;
7233;SDS011;3658;47.992;10.158;2022-08-19T13:38:14;4.10;;;3.70;;
7233;SDS011;3658;47.992;10.158;2022-08-19T13:40:44;4.17;;;3.77;;
7233;SDS011;3658;47.992;10.158;2022-08-19T13:43:11;3.90;;;3.50;;
7233;SDS011;3658;47.992;10.158;2022-08-19T13:45:39;3.77;;;3.47;;
7233;SDS011;3658;47.992;10.158;2022-08-19T13:48:07;4.63;;;4.23;;
7233;SDS011;3658;47.992;10.158;2022-08-19T13:50:35;4.00;;;3.60;;
7233;SDS011;3658;47.992;10.158;2022-08-19T13:53:06;3.63;;;3.30;;
7233;SDS011;3658;47.992;10.158;2022-08-19T13:55:36;4.33;;;3.93;;
7233;SDS011;3658;47.992;10.158;2022-08-19T13:58:04;3.70;;;3.30;;
7233;SDS011;3658;47.992;10.158;2022-08-19T14:00:31;3.87;;;3.57;;
7233;SDS011;3658;47.992;10.158;2022-08-19T14:03:01;4.10;;;3.80;;
7233;SDS011;3658;47.992;10.158;2022-08-19T14:05:29;3.40;;;3.10;;
7233;SDS011;3658;47.992;10.158;2022-08-19T14:07:57;3.50;;;3.20;;
7233;SDS011;3658;47.992;10.158;2022-08-19T14:10:25;4.23;;;3.30;;
7233;SDS011;3658;47.992;10.158;2022-08-19T14:12:55;3.63;;;3.33;;
7233;SDS011;3658;47.992;10.158;2022-08-19T14:15:23;4.43;;;3.57;;
7233;SDS011;3658;47.992;10.158;2022-08-19T14:17:51;3.80;;;3.50;;
7233;SDS011;3658;47.992;10.158;2022-08-19T14:20:18;3.60;;;3.30;;
7233;SDS011;3658;47.992;10.158;2022-08-19T14:22:46;3.20;;;2.87;;
7233;SDS011;3658;47.992;10.158;2022-08-19T14:25:15;3.83;;;3.53;;
7233;SDS011;3658;47.992;10.158;2022-08-19T14:27:45;3.50;;;3.20;;
7233;SDS011;3658;47.992;10.158;2022-08-19T14:30:14;4.23;;;3.17;;
7233;SDS011;3658;47.992;10.158;2022-08-19T14:32:43;3.50;;;3.20;;
7233;SDS011;3658;47.992;10.158;2022-08-19T14:35:11;3.87;;;3.57;;
7233;SDS011;3658;47.992;10.158;2022-08-19T14:37:40;4.13;;;3.83;;
7233;SDS011;3658;47.992;10.158;2022-08-19T14:40:09;3.70;;;3.40;;
7233;SDS011;3658;47.992;10.158;2022-08-19T14:42:37;3.20;;;2.90;;
7233;SDS011;3658;47.992;10.158;2022-08-19T14:45:04;3.57;;;3.27;;
7233;SDS011;3658;47.992;10.158;2022-08-19T14:47:33;3.43;;;3.13;;
7233;SDS011;3658;47.992;10.158;2022-08-19T14:50:00;3.43;;;3.13;;
7233;SDS011;3658;47.992;10.158;2022-08-19T14:52:27;3.40;;;3.10;;
7233;SDS011;3658;47.992;10.158;2022-08-19T14:54:54;3.47;;;3.17;;
7233;SDS011;3658;47.992;10.158;2022-08-19T14:57:21;4.63;;;3.10;;
7233;SDS011;3658;47.992;10.158;2022-08-19T14:59:48;8.37;;;3.43;;
7233;SDS011;3658;47.992;10.158;2022-08-19T15:02:15;5.77;;;3.17;;
7233;SDS011;3658;47.992;10.158;2022-08-19T15:04:44;2.97;;;2.77;;
7233;SDS011;3658;47.992;10.158;2022-08-19T15:07:11;4.70;;;3.13;;
7233;SDS011;3658;47.992;10.158;2022-08-19T15:09:38;3.60;;;3.30;;